createdAt,value
2022-11-17T00:00:02.780Z,94723.16
2022-11-17T00:04:15.101Z,94713.78
2022-11-17T00:08:27.383Z,94698.59
2022-11-17T00:12:59.063Z,94690.06
2022-11-17T00:17:13.734Z,94691.72
2022-11-17T00:21:27.866Z,94700.91
2022-11-17T00:25:40.146Z,94693.25
2022-11-17T00:29:52.468Z,94704.34
2022-11-17T00:34:07.758Z,94709.00
2022-11-17T00:38:20.422Z,94706.59
2022-11-17T00:42:32.671Z,94699.94
2022-11-17T00:46:46.634Z,94706.72
2022-11-17T00:50:58.910Z,94693.94
2022-11-17T00:55:11.194Z,94693.56
2022-11-17T00:59:23.598Z,94703.44
2022-11-17T01:03:37.317Z,94703.38
2022-11-17T01:07:49.812Z,94699.22
2022-11-17T01:12:02.112Z,94690.59
2022-11-17T01:16:17.712Z,94705.66
2022-11-17T01:20:30.023Z,94690.91
2022-11-17T01:24:42.300Z,94685.31
2022-11-17T01:28:55.341Z,94682.16
2022-11-17T01:33:07.610Z,94676.94
2022-11-17T01:37:19.926Z,94677.88
2022-11-17T01:41:32.199Z,94672.19
2022-11-17T01:45:45.180Z,94678.75
2022-11-17T01:50:10.865Z,94672.22
2022-11-17T01:54:26.613Z,94668.41
2022-11-17T01:58:44.642Z,94676.94
2022-11-17T02:02:57.570Z,94680.16
2022-11-17T02:07:30.583Z,94671.47
2022-11-17T02:11:43.048Z,94674.38
2022-11-17T02:15:55.317Z,94649.56
2022-11-17T02:20:07.996Z,94659.09
2022-11-17T02:24:41.532Z,94653.47
2022-11-17T02:29:02.193Z,94644.69
2022-11-17T02:33:24.251Z,94629.47
2022-11-17T02:37:53.165Z,94634.06
2022-11-17T02:42:12.031Z,94620.91
2022-11-17T02:46:26.523Z,94620.63
2022-11-17T02:50:40.969Z,94621.97
2022-11-17T02:54:53.265Z,94614.72
2022-11-17T02:59:06.333Z,94612.13
2022-11-17T03:03:24.358Z,94592.88
2022-11-17T03:07:51.577Z,94581.06
2022-11-17T03:12:14.976Z,94559.53
2022-11-17T03:16:44.723Z,94553.78
2022-11-17T03:21:20.327Z,94552.81
2022-11-17T03:25:35.591Z,94540.53
2022-11-17T03:29:51.380Z,94532.84
2022-11-17T03:34:07.856Z,94554.22
2022-11-17T03:38:23.754Z,94545.72
2022-11-17T03:42:38.975Z,94549.81
2022-11-17T03:46:55.651Z,94532.09
2022-11-17T03:51:14.065Z,94534.53
2022-11-17T03:55:34.908Z,94545.28
2022-11-17T04:00:03.286Z,94524.09
2022-11-17T04:04:18.159Z,94517.69
2022-11-17T04:08:31.471Z,94506.94
2022-11-17T04:13:02.539Z,94500.41
2022-11-17T04:17:14.832Z,94497.16
2022-11-17T04:21:27.481Z,94491.56
2022-11-17T04:26:01.274Z,94497.44
2022-11-17T04:30:13.769Z,94502.78
2022-11-17T04:34:26.234Z,94497.13
2022-11-17T04:38:42.402Z,94481.94
2022-11-17T04:42:54.658Z,94481.91
2022-11-17T04:47:07.766Z,94488.53
2022-11-17T04:51:20.069Z,94482.75
2022-11-17T04:55:33.286Z,94489.69
2022-11-17T04:59:45.533Z,94474.03
2022-11-17T05:04:00.863Z,94468.84
2022-11-17T05:08:13.224Z,94474.31
2022-11-17T05:12:44.254Z,94461.72
2022-11-17T05:17:12.125Z,94467.72
2022-11-17T05:21:24.439Z,94466.41
2022-11-17T05:25:36.742Z,94481.34
2022-11-17T05:29:49.625Z,94515.78
2022-11-17T05:34:03.898Z,94523.72
2022-11-17T05:38:16.161Z,94518.56
2022-11-17T05:42:28.425Z,94529.16
2022-11-17T05:46:40.695Z,94531.47
2022-11-17T05:50:57.178Z,94556.81
2022-11-17T05:55:09.525Z,94572.31
2022-11-17T05:59:31.409Z,94575.00
2022-11-17T06:03:53.439Z,94558.59
2022-11-17T06:08:06.137Z,94557.94
2022-11-17T06:12:18.494Z,94570.69
2022-11-17T06:16:35.646Z,94570.69
2022-11-17T06:20:51.602Z,94578.03
2022-11-17T06:25:05.945Z,94575.34
2022-11-17T06:29:18.333Z,94553.41
2022-11-17T06:33:40.951Z,94556.44
2022-11-17T06:37:53.232Z,94529.78
2022-11-17T06:42:05.613Z,94521.59
2022-11-17T06:46:18.294Z,94492.19
2022-11-17T06:50:30.781Z,94500.19
2022-11-17T06:54:43.050Z,94512.38
2022-11-17T06:58:56.973Z,94525.72
2022-11-17T07:03:10.995Z,94531.97
2022-11-17T07:07:23.366Z,94516.78
2022-11-17T07:11:37.154Z,94551.91
2022-11-17T07:15:50.931Z,94556.34
2022-11-17T07:20:03.329Z,94562.47
2022-11-17T07:24:15.613Z,94560.97
2022-11-17T07:28:28.495Z,94556.91
2022-11-17T07:32:40.814Z,94584.09
2022-11-17T07:36:53.103Z,94576.47
2022-11-17T07:41:06.819Z,94565.72
2022-11-17T07:45:19.259Z,94562.09
2022-11-17T07:49:31.542Z,94578.88
2022-11-17T07:53:44.254Z,94575.38
2022-11-17T07:58:02.102Z,94575.75
2022-11-17T08:02:14.671Z,94569.66
2022-11-17T08:06:27.049Z,94573.16
2022-11-17T08:10:39.346Z,94590.13
2022-11-17T08:14:51.694Z,94605.63
2022-11-17T08:19:06.891Z,94599.28
2022-11-17T08:23:19.449Z,94581.75
2022-11-17T08:27:31.778Z,94580.25
2022-11-17T08:31:46.947Z,94617.94
2022-11-17T08:36:03.271Z,94651.66
2022-11-17T08:40:16.806Z,94644.69
2022-11-17T08:44:29.073Z,94618.50
2022-11-17T08:48:41.650Z,94587.81
2022-11-17T08:52:54.658Z,94562.66
2022-11-17T08:57:07.005Z,94577.81
2022-11-17T09:01:19.618Z,94586.28
2022-11-17T09:05:31.972Z,94577.38
2022-11-17T09:09:44.674Z,94563.97
2022-11-17T09:13:57.232Z,94556.41
2022-11-17T09:18:09.601Z,94542.22
2022-11-17T09:22:22.023Z,94543.44
2022-11-17T09:26:34.607Z,94542.75
2022-11-17T09:30:47.326Z,94542.00
2022-11-17T09:34:59.652Z,94543.09
2022-11-17T09:39:11.942Z,94542.88
2022-11-17T09:43:36.546Z,94536.59
2022-11-17T09:48:25.510Z,94548.78
2022-11-17T09:52:53.784Z,94553.38
2022-11-17T09:57:13.159Z,94555.44
2022-11-17T10:01:29.155Z,94565.88
2022-11-17T10:05:41.516Z,94564.72
2022-11-17T10:09:55.506Z,94558.00
2022-11-17T10:14:16.957Z,94554.81
2022-11-17T10:18:37.702Z,94561.38
2022-11-17T10:22:52.893Z,94557.88
2022-11-17T10:27:24.725Z,94555.81
2022-11-17T10:31:45.716Z,94550.84
2022-11-17T10:36:07.716Z,94553.38
2022-11-17T10:40:25.758Z,94560.56
2022-11-17T10:44:42.652Z,94555.69
2022-11-17T10:48:58.565Z,94561.03
2022-11-17T10:53:27.708Z,94567.47
2022-11-17T10:57:44.901Z,94549.22
2022-11-17T11:01:57.338Z,94546.28
2022-11-17T11:06:34.564Z,94550.91
2022-11-17T11:10:50.986Z,94546.59
2022-11-17T11:15:04.398Z,94559.16
2022-11-17T11:19:22.810Z,94552.34
2022-11-17T11:23:49.423Z,94545.06
2022-11-17T11:28:12.218Z,94547.34
2022-11-17T11:32:45.496Z,94549.59
2022-11-17T11:37:05.134Z,94554.19
2022-11-17T11:41:41.665Z,94557.81
2022-11-17T11:45:59.998Z,94569.00
2022-11-17T11:50:54.167Z,94592.22
2022-11-17T11:55:15.760Z,94575.47
2022-11-17T11:59:51.503Z,94602.16
2022-11-17T12:04:41.128Z,94583.03
2022-11-17T12:09:07.294Z,94567.91
2022-11-17T12:13:22.703Z,94561.94
2022-11-17T12:17:35.153Z,94562.28
2022-11-17T12:21:55.072Z,94554.78
2022-11-17T12:26:22.778Z,94565.00
2022-11-17T12:30:35.056Z,94575.94
2022-11-17T12:35:25.964Z,94574.50
2022-11-17T12:39:56.622Z,94578.09
2022-11-17T12:44:40.081Z,94575.88
2022-11-17T12:49:08.395Z,94569.63
2022-11-17T12:53:29.924Z,94560.16
2022-11-17T12:57:44.900Z,94548.53
2022-11-17T13:02:28.853Z,94549.22
2022-11-17T13:07:04.822Z,94552.59
2022-11-17T13:11:18.397Z,94559.06
2022-11-17T13:15:30.758Z,94553.81
2022-11-17T13:19:43.430Z,94550.28
2022-11-17T13:23:56.585Z,94558.13
2022-11-17T13:28:26.940Z,94551.59
2022-11-17T13:32:42.893Z,94562.41
2022-11-17T13:37:00.243Z,94571.59
2022-11-17T13:41:12.598Z,94562.66
2022-11-17T13:45:25.588Z,94551.81
2022-11-17T13:49:39.475Z,94551.88
2022-11-17T13:53:57.010Z,94553.94
2022-11-17T13:58:47.825Z,94557.72
2022-11-17T14:03:06.997Z,94563.88
2022-11-17T14:07:30.072Z,94561.59
2022-11-17T14:11:42.721Z,94569.03
2022-11-17T14:15:57.994Z,94563.84
2022-11-17T14:20:39.665Z,94579.34
2022-11-17T14:24:52.179Z,94574.13
2022-11-17T14:29:05.623Z,94568.34
2022-11-17T14:33:18.204Z,94582.22
2022-11-17T14:37:32.978Z,94578.75
2022-11-17T14:41:46.196Z,94576.28
2022-11-17T14:45:58.983Z,94582.75
2022-11-17T14:50:17.606Z,94587.22
2022-11-17T14:54:29.931Z,94580.44
2022-11-17T14:58:42.642Z,94573.38
2022-11-17T15:02:54.998Z,94579.81
2022-11-17T15:07:08.136Z,94583.56
2022-11-17T15:11:20.574Z,94585.25
2022-11-17T15:15:33.998Z,94575.81
2022-11-17T15:19:54.414Z,94560.16
2022-11-17T15:24:07.236Z,94563.84
2022-11-17T15:28:23.077Z,94558.19
2022-11-17T15:32:35.510Z,94555.63
2022-11-17T15:36:49.865Z,94558.97
2022-11-17T15:41:02.184Z,94561.38
2022-11-17T15:45:14.502Z,94556.50
2022-11-17T15:49:26.779Z,94561.47
2022-11-17T15:53:40.282Z,94557.25
2022-11-17T15:57:54.379Z,94561.53
2022-11-17T16:02:10.554Z,94554.41
2022-11-17T16:06:23.038Z,94564.38
2022-11-17T16:10:35.380Z,94573.28
2022-11-17T16:14:47.678Z,94562.22
2022-11-17T16:19:01.075Z,94561.31
2022-11-17T16:23:13.598Z,94551.41
2022-11-17T16:27:25.856Z,94546.44
2022-11-17T16:31:48.117Z,94541.22
2022-11-17T16:36:06.167Z,94547.19
2022-11-17T16:40:19.294Z,94543.09
2022-11-17T16:44:31.622Z,94540.50
2022-11-17T16:48:43.945Z,94544.50
2022-11-17T16:52:56.242Z,94535.78
2022-11-17T16:57:08.886Z,94526.50
2022-11-17T17:01:23.943Z,94531.47
2022-11-17T17:05:41.085Z,94533.34
2022-11-17T17:09:53.397Z,94528.41
2022-11-17T17:14:09.034Z,94540.91
2022-11-17T17:18:21.364Z,94532.19
2022-11-17T17:22:33.670Z,94541.47
2022-11-17T17:26:46.107Z,94545.78
2022-11-17T17:30:58.877Z,94545.13
2022-11-17T17:35:11.170Z,94525.97
2022-11-17T17:39:23.434Z,94522.03
2022-11-17T17:43:36.546Z,94528.66
2022-11-17T17:47:56.122Z,94528.56
2022-11-17T17:52:18.419Z,94524.97
2022-11-17T17:56:33.579Z,94515.19
2022-11-17T18:00:48.086Z,94528.03
2022-11-17T18:05:00.346Z,94519.25
2022-11-17T18:09:15.153Z,94527.31
2022-11-17T18:13:32.391Z,94524.56
2022-11-17T18:17:44.663Z,94523.47
2022-11-17T18:21:56.937Z,94521.84
2022-11-17T18:26:18.460Z,94533.78
2022-11-17T18:30:30.791Z,94535.03
2022-11-17T18:34:43.144Z,94541.75
2022-11-17T18:38:57.409Z,94533.44
2022-11-17T18:43:10.183Z,94530.84
2022-11-17T18:47:22.498Z,94527.19
2022-11-17T18:51:37.457Z,94529.66
2022-11-17T18:55:50.105Z,94524.03
2022-11-17T19:00:03.068Z,94528.09
2022-11-17T19:04:15.525Z,94526.19
2022-11-17T19:08:34.572Z,94524.84
2022-11-17T19:12:46.854Z,94526.47
2022-11-17T19:16:59.157Z,94520.41
2022-11-17T19:21:14.084Z,94526.88
2022-11-17T19:25:26.371Z,94518.22
2022-11-17T19:29:40.914Z,94522.84
2022-11-17T19:33:54.894Z,94515.75
2022-11-17T19:38:07.903Z,94517.06
2022-11-17T19:42:20.151Z,94522.56
2022-11-17T19:46:33.402Z,94523.91
2022-11-17T19:50:56.038Z,94533.19
2022-11-17T19:55:08.845Z,94539.16
2022-11-17T19:59:21.525Z,94547.72
2022-11-17T20:03:35.417Z,94538.56
2022-11-17T20:07:47.746Z,94523.06
2022-11-17T20:12:00.004Z,94533.72
2022-11-17T20:16:18.142Z,94538.72
2022-11-17T20:20:30.416Z,94541.38
2022-11-17T20:24:42.683Z,94544.66
2022-11-17T20:28:56.037Z,94537.66
2022-11-17T20:33:08.446Z,94535.97
2022-11-17T20:37:20.744Z,94533.22
2022-11-17T20:41:33.242Z,94524.97
2022-11-17T20:45:54.349Z,94523.91
2022-11-17T20:50:07.082Z,94534.19
2022-11-17T20:54:19.399Z,94532.84
2022-11-17T20:58:31.753Z,94540.22
2022-11-17T21:02:44.060Z,94537.44
2022-11-17T21:06:56.355Z,94535.38
2022-11-17T21:11:11.740Z,94556.66
2022-11-17T21:15:24.073Z,94553.97
2022-11-17T21:19:39.006Z,94550.88
2022-11-17T21:23:55.318Z,94547.66
2022-11-17T21:28:07.695Z,94556.56
2022-11-17T21:32:20.365Z,94558.84
2022-11-17T21:36:34.144Z,94555.97
2022-11-17T21:40:46.433Z,94569.81
2022-11-17T21:44:58.703Z,94566.31
2022-11-17T21:49:10.970Z,94562.81
2022-11-17T21:53:23.252Z,94575.94
2022-11-17T21:57:35.518Z,94578.03
2022-11-17T22:01:47.795Z,94582.03
2022-11-17T22:06:11.358Z,94583.38
2022-11-17T22:10:23.906Z,94592.41
2022-11-17T22:14:36.177Z,94586.31
2022-11-17T22:18:51.438Z,94600.59
2022-11-17T22:23:03.704Z,94623.06
2022-11-17T22:27:16.325Z,94628.31
2022-11-17T22:31:28.746Z,94637.91
2022-11-17T22:35:41.023Z,94635.44
2022-11-17T22:39:53.467Z,94642.41
2022-11-17T22:44:07.077Z,94637.19
2022-11-17T22:48:19.485Z,94641.03
2022-11-17T22:52:40.756Z,94636.78
2022-11-17T22:56:53.050Z,94648.34
2022-11-17T23:01:07.174Z,94657.84
2022-11-17T23:05:20.358Z,94642.84
2022-11-17T23:09:32.714Z,94631.47
2022-11-17T23:13:44.988Z,94642.28
2022-11-17T23:17:57.286Z,94626.44
2022-11-17T23:22:09.549Z,94633.50
2022-11-17T23:26:23.117Z,94625.44
2022-11-17T23:30:35.410Z,94623.59
2022-11-17T23:34:47.755Z,94623.13
2022-11-17T23:39:05.503Z,94622.78
2022-11-17T23:43:17.858Z,94616.53
2022-11-17T23:47:30.154Z,94622.50
2022-11-17T23:51:42.467Z,94622.19
2022-11-17T23:55:58.622Z,94622.84
